Date,TemperatureHighF,TemperatureAvgF,TemperatureLowF,DewpointHighF,DewpointAvgF,DewpointLowF,HumidityHigh,HumidityAvg,HumidityLow,PressureMaxIn,PressureMinIn,WindSpeedMaxMPH,WindSpeedAvgMPH,GustSpeedMaxMPH,PrecipitationSumIn
2013-4-1,79,64,54,64,58,54,99,83,46,30.11,29.96,0,0,0,0.01
2013-4-2,81,66,52,66,58,50,96,77,52,30.11,29.93,0,0,0,0.00
2013-4-3,67,55,50,62,54,48,98,94,82,30.06,29.80,0,0,0,0.19
2013-4-4,54,49,47,50,47,45,98,93,83,30.11,29.98,0,0,0,0.02
2013-4-5,70,55,44,56,48,42,95,79,44,30.21,30.08,0,0,0,0.01
2013-4-6,72,59,45,58,52,43,96,78,56,30.15,30.02,0,0,0,0.01
2013-4-7,78,66,56,65,60,54,96,82,58,30.07,29.93,0,0,0,0.01
2013-4-8,81,70,62,67,64,60,99,82,58,29.97,29.88,0,0,0,0.00
2013-4-9,82,75,66,74,70,64,97,86,74,29.94,29.82,0,0,0,0.00
2013-4-10,82,76,72,74,72,69,92,86,76,29.92,29.78,0,0,0,0.00
2013-4-11,75,59,50,72,56,49,97,90,73,29.88,29.70,0,0,0,0.00
2013-4-12,76,58,45,55,49,44,98,76,36,30.03,29.88,0,0,0,0.00
2013-4-13,83,66,49,57,52,47,95,65,34,30.04,29.84,0,0,0,0.00
2013-4-14,78,67,57,70,63,52,98,88,63,29.85,29.72,0,0,0,0.00
2013-4-15,79,69,61,74,68,60,98,94,82,29.93,29.80,0,0,0,0.01
2013-4-16,81,75,73,75,73,72,96,92,80,30.05,29.92,0,0,0,0.00
2013-4-17,86,78,72,76,73,70,95,84,67,30.05,29.89,0,0,0,0.00
2013-4-18,84,74,52,75,69,50,95,86,72,29.99,29.74,0,0,0,0.01
2013-4-19,62,53,46,50,42,37,93,68,42,30.22,29.99,0,0,0,0.00
2013-4-20,73,56,40,52,45,39,96,70,40,30.28,30.11,0,0,0,0.00
2013-4-21,77,60,46,56,49,44,96,71,37,30.22,30.09,0,0,0,0.00
2013-4-22,83,65,49,61,55,48,97,72,37,30.14,29.98,0,0,0,0.00
2013-4-23,84,72,62,72,67,59,98,85,62,30.04,29.93,0,0,0,0.00
2013-4-24,72,71,65,69,69,60,96,94,92,30.04,29.94,0,0,0,0.00
2013-4-29,76,70,65,68,66,63,95,87,69,29.91,29.86,0,0,0,0.00
2013-4-30,79,70,64,73,67,62,97,92,78,29.90,29.82,0,0,0,0.00